sensor_id;sensor_type;location;lat;lon;timestamp;P1;durP1;ratioP1;P2;durP2;ratioP2
12625;SDS011;6378;42.684;23.372;2023-04-06T00:00:59;15.90;;;10.87;;
12625;SDS011;6378;42.684;23.372;2023-04-06T00:03:24;17.70;;;12.30;;
12625;SDS011;6378;42.684;23.372;2023-04-06T00:05:50;16.70;;;11.23;;
12625;SDS011;6378;42.684;23.372;2023-04-06T00:08:16;15.67;;;11.43;;
12625;SDS011;6378;42.684;23.372;2023-04-06T00:10:41;14.33;;;10.87;;
12625;SDS011;6378;42.684;23.372;2023-04-06T00:13:07;16.57;;;10.40;;
12625;SDS011;6378;42.684;23.372;2023-04-06T00:15:33;13.97;;;10.87;;
12625;SDS011;6378;42.684;23.372;2023-04-06T00:17:58;15.63;;;10.47;;
12625;SDS011;6378;42.684;23.372;2023-04-06T00:20:24;14.47;;;10.70;;
12625;SDS011;6378;42.684;23.372;2023-04-06T00:22:50;15.03;;;9.57;;
12625;SDS011;6378;42.684;23.372;2023-04-06T00:25:17;14.17;;;10.60;;
12625;SDS011;6378;42.684;23.372;2023-04-06T00:27:42;14.70;;;10.30;;
12625;SDS011;6378;42.684;23.372;2023-04-06T00:30:08;15.83;;;11.90;;
12625;SDS011;6378;42.684;23.372;2023-04-06T00:32:34;15.37;;;10.57;;
12625;SDS011;6378;42.684;23.372;2023-04-06T00:35:02;17.03;;;11.57;;
12625;SDS011;6378;42.684;23.372;2023-04-06T00:37:28;15.63;;;11.60;;
12625;SDS011;6378;42.684;23.372;2023-04-06T00:39:53;17.50;;;11.97;;
12625;SDS011;6378;42.684;23.372;2023-04-06T00:42:19;15.90;;;10.77;;
12625;SDS011;6378;42.684;23.372;2023-04-06T00:44:54;14.60;;;10.80;;
12625;SDS011;6378;42.684;23.372;2023-04-06T00:47:21;16.83;;;11.83;;
12625;SDS011;6378;42.684;23.372;2023-04-06T00:49:47;16.93;;;12.03;;
12625;SDS011;6378;42.684;23.372;2023-04-06T00:52:13;18.60;;;11.37;;
12625;SDS011;6378;42.684;23.372;2023-04-06T00:54:39;14.27;;;10.33;;
12625;SDS011;6378;42.684;23.372;2023-04-06T00:57:05;13.73;;;10.03;;
12625;SDS011;6378;42.684;23.372;2023-04-06T00:59:30;13.47;;;10.43;;
12625;SDS011;6378;42.684;23.372;2023-04-06T01:01:56;14.70;;;10.40;;
12625;SDS011;6378;42.684;23.372;2023-04-06T01:04:22;15.57;;;10.40;;
12625;SDS011;6378;42.684;23.372;2023-04-06T01:06:48;15.60;;;11.63;;
12625;SDS011;6378;42.684;23.372;2023-04-06T01:09:14;12.40;;;9.23;;
12625;SDS011;6378;42.684;23.372;2023-04-06T01:11:40;15.53;;;10.10;;
12625;SDS011;6378;42.684;23.372;2023-04-06T01:14:05;15.80;;;11.33;;
12625;SDS011;6378;42.684;23.372;2023-04-06T01:16:31;14.93;;;10.07;;
12625;SDS011;6378;42.684;23.372;2023-04-06T01:18:56;14.10;;;10.67;;
12625;SDS011;6378;42.684;23.372;2023-04-06T01:21:22;16.23;;;11.30;;
12625;SDS011;6378;42.684;23.372;2023-04-06T01:23:47;15.17;;;10.80;;
12625;SDS011;6378;42.684;23.372;2023-04-06T01:26:13;15.37;;;10.43;;
12625;SDS011;6378;42.684;23.372;2023-04-06T01:28:39;15.07;;;11.23;;
12625;SDS011;6378;42.684;23.372;2023-04-06T01:31:08;14.37;;;9.53;;
12625;SDS011;6378;42.684;23.372;2023-04-06T01:33:34;15.70;;;9.93;;
12625;SDS011;6378;42.684;23.372;2023-04-06T01:35:59;14.40;;;10.60;;
12625;SDS011;6378;42.684;23.372;2023-04-06T01:38:25;14.63;;;9.73;;
12625;SDS011;6378;42.684;23.372;2023-04-06T01:40:51;13.87;;;9.43;;
12625;SDS011;6378;42.684;23.372;2023-04-06T01:43:18;12.30;;;8.63;;
12625;SDS011;6378;42.684;23.372;2023-04-06T01:45:43;13.17;;;9.93;;
12625;SDS011;6378;42.684;23.372;2023-04-06T01:48:09;13.70;;;10.20;;
12625;SDS011;6378;42.684;23.372;2023-04-06T01:50:35;13.40;;;9.93;;
12625;SDS011;6378;42.684;23.372;2023-04-06T01:53:00;14.53;;;10.13;;
12625;SDS011;6378;42.684;23.372;2023-04-06T01:55:25;13.60;;;9.47;;
12625;SDS011;6378;42.684;23.372;2023-04-06T01:57:51;13.63;;;9.93;;
12625;SDS011;6378;42.684;23.372;2023-04-06T02:00:16;15.03;;;9.70;;
12625;SDS011;6378;42.684;23.372;2023-04-06T02:02:42;10.97;;;8.60;;
12625;SDS011;6378;42.684;23.372;2023-04-06T02:05:07;11.77;;;8.27;;
12625;SDS011;6378;42.684;23.372;2023-04-06T02:07:33;12.57;;;8.93;;
12625;SDS011;6378;42.684;23.372;2023-04-06T02:09:59;13.10;;;9.93;;
12625;SDS011;6378;42.684;23.372;2023-04-06T02:12:24;13.73;;;10.33;;
12625;SDS011;6378;42.684;23.372;2023-04-06T02:14:50;14.47;;;10.27;;
12625;SDS011;6378;42.684;23.372;2023-04-06T02:17:16;14.40;;;10.40;;
12625;SDS011;6378;42.684;23.372;2023-04-06T02:19:42;12.50;;;9.63;;
12625;SDS011;6378;42.684;23.372;2023-04-06T02:22:07;11.47;;;8.80;;
12625;SDS011;6378;42.684;23.372;2023-04-06T02:24:34;13.90;;;9.90;;
12625;SDS011;6378;42.684;23.372;2023-04-06T02:27:00;14.17;;;10.17;;
12625;SDS011;6378;42.684;23.372;2023-04-06T02:29:26;12.57;;;8.90;;
12625;SDS011;6378;42.684;23.372;2023-04-06T02:31:51;11.30;;;9.20;;
12625;SDS011;6378;42.684;23.372;2023-04-06T02:34:17;12.33;;;9.40;;
12625;SDS011;6378;42.684;23.372;2023-04-06T02:36:45;13.03;;;9.27;;
12625;SDS011;6378;42.684;23.372;2023-04-06T02:39:11;11.63;;;9.00;;
12625;SDS011;6378;42.684;23.372;2023-04-06T02:41:38;12.30;;;8.97;;
12625;SDS011;6378;42.684;23.372;2023-04-06T02:44:04;13.33;;;9.53;;
12625;SDS011;6378;42.684;23.372;2023-04-06T02:46:31;12.73;;;9.77;;
12625;SDS011;6378;42.684;23.372;2023-04-06T02:48:56;13.50;;;9.77;;
12625;SDS011;6378;42.684;23.372;2023-04-06T02:51:22;12.67;;;9.00;;
12625;SDS011;6378;42.684;23.372;2023-04-06T02:53:47;12.67;;;9.40;;
12625;SDS011;6378;42.684;23.372;2023-04-06T02:56:13;13.60;;;8.87;;
12625;SDS011;6378;42.684;23.372;2023-04-06T02:58:38;12.07;;;8.50;;
12625;SDS011;6378;42.684;23.372;2023-04-06T03:01:04;12.93;;;9.10;;
12625;SDS011;6378;42.684;23.372;2023-04-06T03:03:29;10.30;;;8.43;;
12625;SDS011;6378;42.684;23.372;2023-04-06T03:05:55;12.30;;;8.70;;
12625;SDS011;6378;42.684;23.372;2023-04-06T03:08:23;11.07;;;8.00;;
12625;SDS011;6378;42.684;23.372;2023-04-06T03:10:49;11.53;;;8.40;;
12625;SDS011;6378;42.684;23.372;2023-04-06T03:13:15;11.23;;;7.43;;
12625;SDS011;6378;42.684;23.372;2023-04-06T03:15:40;11.70;;;8.80;;
12625;SDS011;6378;42.684;23.372;2023-04-06T03:18:07;12.87;;;8.00;;
12625;SDS011;6378;42.684;23.372;2023-04-06T03:20:33;11.93;;;8.43;;
12625;SDS011;6378;42.684;23.372;2023-04-06T03:22:58;10.30;;;8.63;;
12625;SDS011;6378;42.684;23.372;2023-04-06T03:25:24;13.77;;;9.20;;
12625;SDS011;6378;42.684;23.372;2023-04-06T03:27:49;11.00;;;8.43;;
12625;SDS011;6378;42.684;23.372;2023-04-06T03:30:15;11.80;;;7.60;;
12625;SDS011;6378;42.684;23.372;2023-04-06T03:32:44;11.33;;;7.70;;
12625;SDS011;6378;42.684;23.372;2023-04-06T03:35:10;11.17;;;8.50;;
12625;SDS011;6378;42.684;23.372;2023-04-06T03:37:35;11.27;;;8.03;;
12625;SDS011;6378;42.684;23.372;2023-04-06T03:40:01;12.27;;;8.43;;
12625;SDS011;6378;42.684;23.372;2023-04-06T03:42:27;10.87;;;6.47;;
12625;SDS011;6378;42.684;23.372;2023-04-06T03:44:53;10.20;;;7.57;;
12625;SDS011;6378;42.684;23.372;2023-04-06T03:47:18;12.93;;;8.70;;
12625;SDS011;6378;42.684;23.372;2023-04-06T03:49:43;10.43;;;8.20;;
12625;SDS011;6378;42.684;23.372;2023-04-06T03:52:09;10.87;;;8.23;;
12625;SDS011;6378;42.684;23.372;2023-04-06T03:54:36;11.93;;;8.10;;
12625;SDS011;6378;42.684;23.372;2023-04-06T03:57:02;11.30;;;8.30;;
12625;SDS011;6378;42.684;23.372;2023-04-06T03:59:28;14.40;;;9.73;;
12625;SDS011;6378;42.684;23.372;2023-04-06T04:01:54;14.67;;;9.73;;
12625;SDS011;6378;42.684;23.372;2023-04-06T04:04:20;13.67;;;10.10;;
12625;SDS011;6378;42.684;23.372;2023-04-06T04:06:45;12.63;;;9.17;;
12625;SDS011;6378;42.684;23.372;2023-04-06T04:09:11;13.07;;;8.90;;
12625;SDS011;6378;42.684;23.372;2023-04-06T04:11:36;15.30;;;10.07;;
12625;SDS011;6378;42.684;23.372;2023-04-06T04:14:02;15.73;;;10.53;;
12625;SDS011;6378;42.684;23.372;2023-04-06T04:16:27;16.23;;;10.47;;
12625;SDS011;6378;42.684;23.372;2023-04-06T04:18:53;14.63;;;9.97;;
12625;SDS011;6378;42.684;23.372;2023-04-06T04:21:18;14.47;;;10.40;;
12625;SDS011;6378;42.684;23.372;2023-04-06T04:23:44;16.03;;;10.27;;
12625;SDS011;6378;42.684;23.372;2023-04-06T04:26:10;16.60;;;10.00;;
12625;SDS011;6378;42.684;23.372;2023-04-06T04:28:35;15.97;;;11.10;;
12625;SDS011;6378;42.684;23.372;2023-04-06T04:31:01;15.97;;;10.63;;
12625;SDS011;6378;42.684;23.372;2023-04-06T04:33:26;14.53;;;9.97;;
12625;SDS011;6378;42.684;23.372;2023-04-06T04:35:52;14.87;;;10.27;;
12625;SDS011;6378;42.684;23.372;2023-04-06T04:38:17;15.30;;;10.20;;
12625;SDS011;6378;42.684;23.372;2023-04-06T04:40:43;14.60;;;9.53;;
12625;SDS011;6378;42.684;23.372;2023-04-06T04:43:08;13.47;;;9.33;;
12625;SDS011;6378;42.684;23.372;2023-04-06T04:45:34;14.40;;;9.40;;
12625;SDS011;6378;42.684;23.372;2023-04-06T04:47:59;14.97;;;10.27;;
12625;SDS011;6378;42.684;23.372;2023-04-06T04:50:25;17.27;;;11.23;;
12625;SDS011;6378;42.684;23.372;2023-04-06T04:52:50;14.03;;;10.80;;
12625;SDS011;6378;42.684;23.372;2023-04-06T04:55:16;17.07;;;10.50;;
12625;SDS011;6378;42.684;23.372;2023-04-06T04:57:42;13.17;;;9.23;;
12625;SDS011;6378;42.684;23.372;2023-04-06T05:00:08;15.70;;;9.70;;
12625;SDS011;6378;42.684;23.372;2023-04-06T05:02:33;15.50;;;10.07;;
12625;SDS011;6378;42.684;23.372;2023-04-06T05:04:59;12.23;;;9.13;;
12625;SDS011;6378;42.684;23.372;2023-04-06T05:07:25;13.03;;;9.73;;
12625;SDS011;6378;42.684;23.372;2023-04-06T05:09:50;15.13;;;9.50;;
12625;SDS011;6378;42.684;23.372;2023-04-06T05:12:16;14.67;;;9.20;;
12625;SDS011;6378;42.684;23.372;2023-04-06T05:14:41;13.37;;;10.03;;
12625;SDS011;6378;42.684;23.372;2023-04-06T05:17:07;15.17;;;10.33;;
12625;SDS011;6378;42.684;23.372;2023-04-06T05:19:32;16.90;;;11.50;;
12625;SDS011;6378;42.684;23.372;2023-04-06T05:21:58;16.17;;;11.60;;
12625;SDS011;6378;42.684;23.372;2023-04-06T05:24:23;14.47;;;9.80;;
12625;SDS011;6378;42.684;23.372;2023-04-06T05:26:49;17.33;;;10.40;;
12625;SDS011;6378;42.684;23.372;2023-04-06T05:29:14;11.73;;;8.37;;
12625;SDS011;6378;42.684;23.372;2023-04-06T05:31:40;14.47;;;10.27;;
12625;SDS011;6378;42.684;23.372;2023-04-06T05:34:05;14.07;;;10.10;;
12625;SDS011;6378;42.684;23.372;2023-04-06T05:36:31;15.47;;;11.13;;
12625;SDS011;6378;42.684;23.372;2023-04-06T05:38:57;17.13;;;11.97;;
12625;SDS011;6378;42.684;23.372;2023-04-06T05:41:23;15.17;;;11.00;;
12625;SDS011;6378;42.684;23.372;2023-04-06T05:43:49;16.57;;;10.93;;
12625;SDS011;6378;42.684;23.372;2023-04-06T05:46:15;14.73;;;10.23;;
12625;SDS011;6378;42.684;23.372;2023-04-06T05:48:40;17.90;;;11.23;;
12625;SDS011;6378;42.684;23.372;2023-04-06T05:51:06;16.27;;;11.20;;
12625;SDS011;6378;42.684;23.372;2023-04-06T05:53:31;19.23;;;11.57;;
12625;SDS011;6378;42.684;23.372;2023-04-06T05:56:01;18.53;;;11.57;;
12625;SDS011;6378;42.684;23.372;2023-04-06T05:58:27;22.43;;;13.53;;
12625;SDS011;6378;42.684;23.372;2023-04-06T06:00:57;18.37;;;13.30;;
12625;SDS011;6378;42.684;23.372;2023-04-06T06:03:23;20.77;;;11.93;;
12625;SDS011;6378;42.684;23.372;2023-04-06T06:05:51;19.93;;;12.67;;
12625;SDS011;6378;42.684;23.372;2023-04-06T06:08:20;22.03;;;11.87;;
12625;SDS011;6378;42.684;23.372;2023-04-06T06:10:45;19.17;;;12.10;;
12625;SDS011;6378;42.684;23.372;2023-04-06T06:13:17;20.10;;;13.07;;
12625;SDS011;6378;42.684;23.372;2023-04-06T06:15:51;20.73;;;13.87;;
12625;SDS011;6378;42.684;23.372;2023-04-06T06:18:16;24.00;;;13.50;;
12625;SDS011;6378;42.684;23.372;2023-04-06T06:20:42;19.50;;;13.57;;
12625;SDS011;6378;42.684;23.372;2023-04-06T06:23:07;20.90;;;14.77;;
12625;SDS011;6378;42.684;23.372;2023-04-06T06:25:33;19.90;;;12.80;;
12625;SDS011;6378;42.684;23.372;2023-04-06T06:27:58;17.93;;;12.57;;
12625;SDS011;6378;42.684;23.372;2023-04-06T06:30:24;18.43;;;11.70;;
12625;SDS011;6378;42.684;23.372;2023-04-06T06:32:52;17.57;;;11.70;;
12625;SDS011;6378;42.684;23.372;2023-04-06T06:35:18;18.63;;;12.50;;
12625;SDS011;6378;42.684;23.372;2023-04-06T06:37:43;16.67;;;11.33;;
12625;SDS011;6378;42.684;23.372;2023-04-06T06:40:09;15.40;;;9.77;;
12625;SDS011;6378;42.684;23.372;2023-04-06T06:42:38;17.47;;;12.33;;
12625;SDS011;6378;42.684;23.372;2023-04-06T06:45:04;20.63;;;12.43;;
12625;SDS011;6378;42.684;23.372;2023-04-06T06:47:30;11.97;;;8.33;;
12625;SDS011;6378;42.684;23.372;2023-04-06T06:49:55;17.50;;;11.17;;
12625;SDS011;6378;42.684;23.372;2023-04-06T06:52:21;17.37;;;12.30;;
12625;SDS011;6378;42.684;23.372;2023-04-06T06:54:48;18.27;;;12.77;;
12625;SDS011;6378;42.684;23.372;2023-04-06T06:57:13;14.83;;;10.23;;
12625;SDS011;6378;42.684;23.372;2023-04-06T06:59:38;16.17;;;11.63;;
12625;SDS011;6378;42.684;23.372;2023-04-06T07:02:04;14.80;;;11.07;;
12625;SDS011;6378;42.684;23.372;2023-04-06T07:04:30;16.87;;;11.83;;
12625;SDS011;6378;42.684;23.372;2023-04-06T07:06:55;18.83;;;12.47;;
12625;SDS011;6378;42.684;23.372;2023-04-06T07:09:21;20.00;;;11.50;;
12625;SDS011;6378;42.684;23.372;2023-04-06T07:11:46;16.70;;;11.70;;
12625;SDS011;6378;42.684;23.372;2023-04-06T07:14:14;15.87;;;11.47;;
12625;SDS011;6378;42.684;23.372;2023-04-06T07:16:40;16.53;;;11.50;;
12625;SDS011;6378;42.684;23.372;2023-04-06T07:19:06;15.67;;;11.40;;
12625;SDS011;6378;42.684;23.372;2023-04-06T07:21:31;15.30;;;10.50;;
12625;SDS011;6378;42.684;23.372;2023-04-06T07:23:57;16.57;;;12.47;;
12625;SDS011;6378;42.684;23.372;2023-04-06T07:26:22;15.67;;;10.57;;
12625;SDS011;6378;42.684;23.372;2023-04-06T07:28:48;19.03;;;13.03;;
12625;SDS011;6378;42.684;23.372;2023-04-06T07:31:13;16.43;;;11.17;;
12625;SDS011;6378;42.684;23.372;2023-04-06T07:33:38;16.80;;;12.07;;
12625;SDS011;6378;42.684;23.372;2023-04-06T07:36:04;17.50;;;11.70;;
12625;SDS011;6378;42.684;23.372;2023-04-06T07:38:30;17.83;;;11.90;;
12625;SDS011;6378;42.684;23.372;2023-04-06T07:40:55;16.30;;;11.30;;
12625;SDS011;6378;42.684;23.372;2023-04-06T07:43:21;17.50;;;11.80;;
12625;SDS011;6378;42.684;23.372;2023-04-06T07:45:46;18.10;;;9.80;;
12625;SDS011;6378;42.684;23.372;2023-04-06T07:48:12;14.70;;;11.17;;
12625;SDS011;6378;42.684;23.372;2023-04-06T07:50:37;14.43;;;10.43;;
12625;SDS011;6378;42.684;23.372;2023-04-06T07:53:03;13.87;;;10.10;;
12625;SDS011;6378;42.684;23.372;2023-04-06T07:55:28;16.93;;;10.93;;
12625;SDS011;6378;42.684;23.372;2023-04-06T07:57:54;13.60;;;9.93;;
12625;SDS011;6378;42.684;23.372;2023-04-06T08:00:20;14.50;;;10.33;;
12625;SDS011;6378;42.684;23.372;2023-04-06T08:02:45;19.90;;;11.47;;
12625;SDS011;6378;42.684;23.372;2023-04-06T08:05:11;14.63;;;10.60;;
12625;SDS011;6378;42.684;23.372;2023-04-06T08:07:36;14.70;;;10.00;;
12625;SDS011;6378;42.684;23.372;2023-04-06T08:10:02;14.17;;;10.90;;
12625;SDS011;6378;42.684;23.372;2023-04-06T08:12:28;15.53;;;11.53;;
12625;SDS011;6378;42.684;23.372;2023-04-06T08:14:54;12.77;;;9.50;;
12625;SDS011;6378;42.684;23.372;2023-04-06T08:17:19;12.67;;;10.10;;
12625;SDS011;6378;42.684;23.372;2023-04-06T08:19:45;12.53;;;9.17;;
12625;SDS011;6378;42.684;23.372;2023-04-06T08:22:11;14.73;;;9.60;;
12625;SDS011;6378;42.684;23.372;2023-04-06T08:24:36;11.23;;;8.63;;
12625;SDS011;6378;42.684;23.372;2023-04-06T08:27:02;14.17;;;10.20;;
12625;SDS011;6378;42.684;23.372;2023-04-06T08:29:28;12.23;;;8.47;;
12625;SDS011;6378;42.684;23.372;2023-04-06T08:31:53;15.40;;;10.20;;
12625;SDS011;6378;42.684;23.372;2023-04-06T08:34:19;13.73;;;10.10;;
12625;SDS011;6378;42.684;23.372;2023-04-06T08:36:44;17.10;;;10.43;;
12625;SDS011;6378;42.684;23.372;2023-04-06T08:39:11;30.03;;;19.70;;
12625;SDS011;6378;42.684;23.372;2023-04-06T08:41:36;11.90;;;9.77;;
12625;SDS011;6378;42.684;23.372;2023-04-06T08:44:02;13.17;;;9.37;;
12625;SDS011;6378;42.684;23.372;2023-04-06T08:46:29;13.10;;;10.30;;
12625;SDS011;6378;42.684;23.372;2023-04-06T08:48:58;14.13;;;10.03;;
12625;SDS011;6378;42.684;23.372;2023-04-06T08:51:25;12.88;;;11.05;;
12625;SDS011;6378;42.684;23.372;2023-04-06T08:53:52;15.07;;;10.43;;
12625;SDS011;6378;42.684;23.372;2023-04-06T08:56:20;13.50;;;9.97;;
12625;SDS011;6378;42.684;23.372;2023-04-06T08:58:47;9.73;;;8.73;;
12625;SDS011;6378;42.684;23.372;2023-04-06T09:01:13;10.43;;;8.57;;
12625;SDS011;6378;42.684;23.372;2023-04-06T09:03:40;12.07;;;9.10;;
12625;SDS011;6378;42.684;23.372;2023-04-06T09:06:10;12.40;;;9.63;;
12625;SDS011;6378;42.684;23.372;2023-04-06T09:08:38;11.37;;;9.20;;
12625;SDS011;6378;42.684;23.372;2023-04-06T09:11:05;12.87;;;8.97;;
12625;SDS011;6378;42.684;23.372;2023-04-06T09:13:31;12.73;;;9.27;;
12625;SDS011;6378;42.684;23.372;2023-04-06T09:16:03;9.47;;;7.30;;
12625;SDS011;6378;42.684;23.372;2023-04-06T09:18:33;13.83;;;9.33;;
12625;SDS011;6378;42.684;23.372;2023-04-06T09:21:03;13.17;;;8.43;;
12625;SDS011;6378;42.684;23.372;2023-04-06T09:23:29;11.10;;;8.63;;
12625;SDS011;6378;42.684;23.372;2023-04-06T09:26:09;12.70;;;8.83;;
12625;SDS011;6378;42.684;23.372;2023-04-06T09:28:50;16.57;;;10.07;;
12625;SDS011;6378;42.684;23.372;2023-04-06T09:31:22;11.87;;;8.97;;
12625;SDS011;6378;42.684;23.372;2023-04-06T09:33:52;9.23;;;7.67;;
12625;SDS011;6378;42.684;23.372;2023-04-06T09:36:18;15.07;;;10.13;;
12625;SDS011;6378;42.684;23.372;2023-04-06T09:41:27;13.40;;;8.67;;
12625;SDS011;6378;42.684;23.372;2023-04-06T09:44:04;11.27;;;8.67;;
12625;SDS011;6378;42.684;23.372;2023-04-06T09:46:37;11.57;;;9.53;;
12625;SDS011;6378;42.684;23.372;2023-04-06T09:49:04;13.00;;;9.73;;
12625;SDS011;6378;42.684;23.372;2023-04-06T09:51:36;13.30;;;9.60;;
12625;SDS011;6378;42.684;23.372;2023-04-06T09:54:15;10.40;;;8.17;;
12625;SDS011;6378;42.684;23.372;2023-04-06T09:59:13;11.47;;;9.30;;
12625;SDS011;6378;42.684;23.372;2023-04-06T10:01:44;13.90;;;10.17;;
12625;SDS011;6378;42.684;23.372;2023-04-06T10:06:55;13.05;;;11.02;;
12625;SDS011;6378;42.684;23.372;2023-04-06T10:09:22;9.97;;;8.07;;
12625;SDS011;6378;42.684;23.372;2023-04-06T10:11:53;12.03;;;9.23;;
12625;SDS011;6378;42.684;23.372;2023-04-06T10:14:19;12.33;;;9.27;;
12625;SDS011;6378;42.684;23.372;2023-04-06T10:16:45;9.80;;;7.30;;
12625;SDS011;6378;42.684;23.372;2023-04-06T10:19:18;9.73;;;8.70;;
12625;SDS011;6378;42.684;23.372;2023-04-06T10:21:48;10.73;;;8.20;;
12625;SDS011;6378;42.684;23.372;2023-04-06T10:24:18;13.33;;;9.40;;
12625;SDS011;6378;42.684;23.372;2023-04-06T10:26:56;14.17;;;8.20;;
12625;SDS011;6378;42.684;23.372;2023-04-06T10:29:23;12.20;;;8.70;;
12625;SDS011;6378;42.684;23.372;2023-04-06T10:31:49;11.50;;;9.30;;
12625;SDS011;6378;42.684;23.372;2023-04-06T10:34:15;11.40;;;8.70;;
12625;SDS011;6378;42.684;23.372;2023-04-06T10:36:40;11.83;;;8.60;;
12625;SDS011;6378;42.684;23.372;2023-04-06T10:39:06;10.70;;;9.10;;
12625;SDS011;6378;42.684;23.372;2023-04-06T10:41:41;14.47;;;8.90;;
12625;SDS011;6378;42.684;23.372;2023-04-06T10:44:08;14.43;;;9.37;;
12625;SDS011;6378;42.684;23.372;2023-04-06T10:46:42;11.27;;;8.80;;
12625;SDS011;6378;42.684;23.372;2023-04-06T10:49:18;10.90;;;8.63;;
12625;SDS011;6378;42.684;23.372;2023-04-06T10:51:44;11.00;;;8.90;;
12625;SDS011;6378;42.684;23.372;2023-04-06T10:54:10;12.60;;;9.40;;
12625;SDS011;6378;42.684;23.372;2023-04-06T10:56:36;11.10;;;9.03;;
12625;SDS011;6378;42.684;23.372;2023-04-06T10:59:03;11.80;;;9.63;;
12625;SDS011;6378;42.684;23.372;2023-04-06T11:01:31;12.13;;;9.80;;
12625;SDS011;6378;42.684;23.372;2023-04-06T11:03:56;13.20;;;9.30;;
12625;SDS011;6378;42.684;23.372;2023-04-06T11:06:26;10.90;;;9.73;;
12625;SDS011;6378;42.684;23.372;2023-04-06T11:08:54;10.23;;;8.33;;
12625;SDS011;6378;42.684;23.372;2023-04-06T11:11:21;12.53;;;8.93;;
12625;SDS011;6378;42.684;23.372;2023-04-06T11:13:59;13.53;;;10.10;;
12625;SDS011;6378;42.684;23.372;2023-04-06T11:19:01;11.60;;;8.50;;
12625;SDS011;6378;42.684;23.372;2023-04-06T11:21:31;12.23;;;9.27;;
12625;SDS011;6378;42.684;23.372;2023-04-06T11:24:09;12.10;;;9.43;;
12625;SDS011;6378;42.684;23.372;2023-04-06T11:26:53;14.87;;;9.43;;
12625;SDS011;6378;42.684;23.372;2023-04-06T11:31:50;12.47;;;8.73;;
12625;SDS011;6378;42.684;23.372;2023-04-06T11:36:43;9.10;;;7.53;;
12625;SDS011;6378;42.684;23.372;2023-04-06T11:39:09;11.47;;;9.03;;
12625;SDS011;6378;42.684;23.372;2023-04-06T11:41:36;9.93;;;7.80;;
12625;SDS011;6378;42.684;23.372;2023-04-06T11:44:01;12.23;;;8.97;;
12625;SDS011;6378;42.684;23.372;2023-04-06T11:46:30;14.33;;;9.73;;
12625;SDS011;6378;42.684;23.372;2023-04-06T11:48:58;12.27;;;9.47;;
12625;SDS011;6378;42.684;23.372;2023-04-06T11:51:25;14.17;;;10.33;;
12625;SDS011;6378;42.684;23.372;2023-04-06T11:53:52;13.53;;;9.40;;
12625;SDS011;6378;42.684;23.372;2023-04-06T11:56:24;10.30;;;8.33;;
12625;SDS011;6378;42.684;23.372;2023-04-06T11:58:51;11.00;;;8.57;;
12625;SDS011;6378;42.684;23.372;2023-04-06T12:01:16;11.07;;;9.40;;
12625;SDS011;6378;42.684;23.372;2023-04-06T12:03:42;15.43;;;9.60;;
12625;SDS011;6378;42.684;23.372;2023-04-06T12:06:07;11.57;;;9.17;;
12625;SDS011;6378;42.684;23.372;2023-04-06T12:08:33;14.30;;;9.87;;
12625;SDS011;6378;42.684;23.372;2023-04-06T12:10:58;11.83;;;8.73;;
12625;SDS011;6378;42.684;23.372;2023-04-06T12:13:24;14.33;;;9.37;;
12625;SDS011;6378;42.684;23.372;2023-04-06T12:15:49;13.33;;;9.83;;
12625;SDS011;6378;42.684;23.372;2023-04-06T12:18:15;13.47;;;9.83;;
12625;SDS011;6378;42.684;23.372;2023-04-06T12:20:40;11.37;;;8.33;;
12625;SDS011;6378;42.684;23.372;2023-04-06T12:23:06;9.60;;;7.57;;
12625;SDS011;6378;42.684;23.372;2023-04-06T12:25:31;12.53;;;8.30;;
12625;SDS011;6378;42.684;23.372;2023-04-06T12:27:57;12.00;;;8.67;;
12625;SDS011;6378;42.684;23.372;2023-04-06T12:30:24;12.20;;;9.10;;
12625;SDS011;6378;42.684;23.372;2023-04-06T12:32:50;9.53;;;7.63;;
12625;SDS011;6378;42.684;23.372;2023-04-06T12:35:15;9.87;;;8.40;;
12625;SDS011;6378;42.684;23.372;2023-04-06T12:37:41;10.17;;;8.67;;
12625;SDS011;6378;42.684;23.372;2023-04-06T12:40:07;12.43;;;9.00;;
12625;SDS011;6378;42.684;23.372;2023-04-06T12:42:35;9.57;;;8.53;;
12625;SDS011;6378;42.684;23.372;2023-04-06T12:45:01;12.97;;;8.50;;
12625;SDS011;6378;42.684;23.372;2023-04-06T12:47:27;8.67;;;7.57;;
12625;SDS011;6378;42.684;23.372;2023-04-06T12:49:52;10.60;;;8.80;;
12625;SDS011;6378;42.684;23.372;2023-04-06T12:52:19;12.07;;;8.37;;
12625;SDS011;6378;42.684;23.372;2023-04-06T12:54:44;11.13;;;8.80;;
12625;SDS011;6378;42.684;23.372;2023-04-06T12:57:09;9.53;;;8.27;;
12625;SDS011;6378;42.684;23.372;2023-04-06T12:59:35;11.17;;;8.67;;
12625;SDS011;6378;42.684;23.372;2023-04-06T13:02:03;15.47;;;10.03;;
12625;SDS011;6378;42.684;23.372;2023-04-06T13:04:37;11.13;;;8.97;;
12625;SDS011;6378;42.684;23.372;2023-04-06T13:07:06;11.00;;;9.60;;
12625;SDS011;6378;42.684;23.372;2023-04-06T13:09:32;12.63;;;8.73;;
12625;SDS011;6378;42.684;23.372;2023-04-06T13:11:57;12.20;;;9.23;;
12625;SDS011;6378;42.684;23.372;2023-04-06T13:14:22;11.00;;;9.63;;
12625;SDS011;6378;42.684;23.372;2023-04-06T13:16:48;12.67;;;9.47;;
12625;SDS011;6378;42.684;23.372;2023-04-06T13:19:13;12.77;;;9.50;;
12625;SDS011;6378;42.684;23.372;2023-04-06T13:21:39;11.47;;;8.30;;
12625;SDS011;6378;42.684;23.372;2023-04-06T13:24:05;10.27;;;8.43;;
12625;SDS011;6378;42.684;23.372;2023-04-06T13:26:30;11.47;;;9.07;;
12625;SDS011;6378;42.684;23.372;2023-04-06T13:28:56;14.60;;;9.93;;
12625;SDS011;6378;42.684;23.372;2023-04-06T13:31:21;11.30;;;9.07;;
12625;SDS011;6378;42.684;23.372;2023-04-06T13:33:47;9.90;;;8.00;;
12625;SDS011;6378;42.684;23.372;2023-04-06T13:36:13;10.10;;;8.20;;
12625;SDS011;6378;42.684;23.372;2023-04-06T13:38:38;11.80;;;9.27;;
12625;SDS011;6378;42.684;23.372;2023-04-06T13:41:04;10.23;;;9.23;;
12625;SDS011;6378;42.684;23.372;2023-04-06T13:43:31;11.67;;;9.37;;
12625;SDS011;6378;42.684;23.372;2023-04-06T13:45:57;11.33;;;9.33;;
12625;SDS011;6378;42.684;23.372;2023-04-06T13:48:24;13.50;;;9.87;;
12625;SDS011;6378;42.684;23.372;2023-04-06T13:50:51;12.27;;;9.73;;
12625;SDS011;6378;42.684;23.372;2023-04-06T13:53:17;10.53;;;8.17;;
12625;SDS011;6378;42.684;23.372;2023-04-06T13:55:42;12.23;;;9.43;;
12625;SDS011;6378;42.684;23.372;2023-04-06T13:58:08;10.27;;;8.63;;
12625;SDS011;6378;42.684;23.372;2023-04-06T14:00:34;9.43;;;7.93;;
12625;SDS011;6378;42.684;23.372;2023-04-06T14:03:00;11.20;;;8.47;;
12625;SDS011;6378;42.684;23.372;2023-04-06T14:05:26;11.43;;;9.23;;
12625;SDS011;6378;42.684;23.372;2023-04-06T14:07:55;13.90;;;10.23;;
12625;SDS011;6378;42.684;23.372;2023-04-06T14:10:21;11.03;;;9.37;;
12625;SDS011;6378;42.684;23.372;2023-04-06T14:12:48;13.10;;;8.90;;
12625;SDS011;6378;42.684;23.372;2023-04-06T14:15:14;10.03;;;8.37;;
12625;SDS011;6378;42.684;23.372;2023-04-06T14:17:40;10.00;;;8.47;;
12625;SDS011;6378;42.684;23.372;2023-04-06T14:20:06;12.20;;;8.67;;
12625;SDS011;6378;42.684;23.372;2023-04-06T14:22:31;10.63;;;9.10;;
12625;SDS011;6378;42.684;23.372;2023-04-06T14:24:57;12.20;;;9.70;;
12625;SDS011;6378;42.684;23.372;2023-04-06T14:27:23;8.73;;;7.77;;
12625;SDS011;6378;42.684;23.372;2023-04-06T14:29:49;11.40;;;8.93;;
12625;SDS011;6378;42.684;23.372;2023-04-06T14:32:14;10.90;;;9.77;;
12625;SDS011;6378;42.684;23.372;2023-04-06T14:34:40;10.77;;;8.97;;
12625;SDS011;6378;42.684;23.372;2023-04-06T14:37:05;12.60;;;9.27;;
12625;SDS011;6378;42.684;23.372;2023-04-06T14:39:31;12.17;;;9.27;;
12625;SDS011;6378;42.684;23.372;2023-04-06T14:41:56;15.43;;;10.60;;